createdAt,value
2022-11-09T00:01:25.159Z,52.28
2022-11-09T00:03:57.509Z,52.03
2022-11-09T00:06:25.779Z,46.72
2022-11-09T00:08:55.474Z,47.50
2022-11-09T00:11:24.176Z,45.65
2022-11-09T00:13:52.477Z,47.58
2022-11-09T00:16:22.511Z,45.08
2022-11-09T00:18:51.948Z,48.70
2022-11-09T00:21:21.522Z,44.00
2022-11-09T00:23:50.068Z,42.83
2022-11-09T00:26:20.842Z,46.45
2022-11-09T00:28:49.241Z,44.20
2022-11-09T00:31:19.311Z,45.63
2022-11-09T00:33:50.595Z,46.47
2022-11-09T00:36:20.044Z,43.83
2022-11-09T00:38:51.878Z,46.25
2022-11-09T00:41:22.447Z,38.97
2022-11-09T00:43:51.614Z,47.70
2022-11-09T00:46:20.970Z,44.85
2022-11-09T00:48:49.471Z,49.50
2022-11-09T00:51:18.672Z,48.90
2022-11-09T00:53:48.482Z,46.25
2022-11-09T00:56:16.772Z,43.58
2022-11-09T00:58:46.386Z,48.78
2022-11-09T01:01:17.183Z,51.65
2022-11-09T01:03:46.675Z,49.53
2022-11-09T01:06:17.921Z,46.42
2022-11-09T01:08:47.242Z,41.13
2022-11-09T01:11:16.163Z,50.03
2022-11-09T01:13:46.526Z,45.60
2022-11-09T01:16:16.792Z,50.50
2022-11-09T01:18:45.184Z,38.00
2022-11-09T01:21:15.472Z,49.22
2022-11-09T01:23:44.710Z,43.40
2022-11-09T01:26:15.052Z,41.63
2022-11-09T01:28:45.618Z,45.58
2022-11-09T01:31:15.966Z,45.85
2022-11-09T01:33:44.791Z,47.25
2022-11-09T01:36:14.527Z,53.40
2022-11-09T01:38:43.134Z,50.75
2022-11-09T01:41:14.877Z,46.13
2022-11-09T01:43:43.283Z,46.58
2022-11-09T01:46:20.279Z,48.92
2022-11-09T01:48:53.734Z,48.65
2022-11-09T01:51:27.855Z,48.97
2022-11-09T01:54:00.471Z,40.95
2022-11-09T01:56:30.258Z,39.63
2022-11-09T01:59:03.958Z,43.80
2022-11-09T02:01:34.416Z,46.60
2022-11-09T02:04:06.933Z,49.30
2022-11-09T02:06:36.203Z,49.75
2022-11-09T02:09:09.344Z,50.33
2022-11-09T02:11:38.969Z,47.95
2022-11-09T02:14:08.436Z,56.80
2022-11-09T02:16:38.954Z,49.42
2022-11-09T02:19:07.553Z,54.33
2022-11-09T02:21:37.292Z,51.80
2022-11-09T02:24:06.281Z,52.45
2022-11-09T02:26:40.132Z,50.42
2022-11-09T02:29:11.130Z,59.78
2022-11-09T02:31:45.091Z,50.25
2022-11-09T02:34:16.605Z,48.20
2022-11-09T02:36:46.282Z,56.10
2022-11-09T02:39:17.760Z,58.33
2022-11-09T02:41:54.799Z,54.65
2022-11-09T02:44:25.002Z,48.72
2022-11-09T02:46:53.346Z,58.70
2022-11-09T02:49:21.540Z,56.97
2022-11-09T02:51:51.183Z,60.92
2022-11-09T02:54:19.437Z,53.05
2022-11-09T02:56:47.598Z,60.40
2022-11-09T02:59:15.890Z,62.47
2022-11-09T03:01:44.129Z,54.58
2022-11-09T03:04:12.505Z,53.50
2022-11-09T03:06:40.933Z,52.20
2022-11-09T03:09:12.442Z,55.80
2022-11-09T03:11:41.497Z,53.47
2022-11-09T03:14:10.738Z,53.65
2022-11-09T03:16:40.150Z,59.28
2022-11-09T03:19:08.972Z,56.47
2022-11-09T03:21:37.693Z,49.15
2022-11-09T03:24:06.797Z,55.75
2022-11-09T03:26:36.583Z,54.95
2022-11-09T03:29:04.798Z,51.08
2022-11-09T03:31:32.908Z,51.33
2022-11-09T03:34:01.497Z,67.97
2022-11-09T03:36:29.674Z,50.97
2022-11-09T03:38:58.124Z,59.90
2022-11-09T03:41:26.318Z,67.32
2022-11-09T03:43:56.138Z,58.47
2022-11-09T03:46:24.395Z,51.13
2022-11-09T03:48:52.654Z,62.05
2022-11-09T03:51:21.172Z,60.55
2022-11-09T03:53:49.483Z,62.58
2022-11-09T03:56:18.938Z,61.10
2022-11-09T03:58:47.359Z,65.85
2022-11-09T04:01:17.367Z,68.78
2022-11-09T04:03:45.658Z,62.47
2022-11-09T04:06:16.852Z,67.05
2022-11-09T04:08:50.929Z,67.53
2022-11-09T04:11:20.094Z,63.85
2022-11-09T04:13:48.577Z,67.85
2022-11-09T04:16:18.335Z,70.72
2022-11-09T04:18:47.257Z,63.20
2022-11-09T04:21:17.178Z,70.95
2022-11-09T04:23:49.647Z,63.42
2022-11-09T04:26:18.222Z,64.88
2022-11-09T04:28:46.387Z,79.40
2022-11-09T04:31:15.053Z,69.28
2022-11-09T04:33:46.180Z,69.68
2022-11-09T04:36:14.782Z,65.63
2022-11-09T04:38:42.960Z,69.75
2022-11-09T04:41:15.085Z,64.40
2022-11-09T04:43:43.607Z,71.03
2022-11-09T04:46:12.151Z,67.95
2022-11-09T04:48:41.534Z,61.33
2022-11-09T04:51:13.574Z,74.40
2022-11-09T04:53:41.825Z,64.78
2022-11-09T04:56:10.998Z,76.93
2022-11-09T04:58:39.754Z,68.47
2022-11-09T05:01:11.539Z,59.35
2022-11-09T05:03:40.172Z,68.75
2022-11-09T05:06:24.277Z,71.18
2022-11-09T05:08:52.844Z,67.13
2022-11-09T05:11:21.262Z,69.28
2022-11-09T05:13:51.397Z,71.60
2022-11-09T05:16:20.051Z,68.03
2022-11-09T05:18:49.799Z,62.78
2022-11-09T05:21:19.904Z,56.78
2022-11-09T05:23:59.935Z,70.70
2022-11-09T05:26:30.237Z,68.95
2022-11-09T05:28:59.255Z,69.13
2022-11-09T05:31:28.547Z,70.72
2022-11-09T05:33:57.671Z,59.22
2022-11-09T05:36:28.707Z,61.85
2022-11-09T05:38:57.426Z,56.58
2022-11-09T05:41:25.828Z,58.10
2022-11-09T05:43:54.302Z,58.05
2022-11-09T05:46:22.540Z,61.60
2022-11-09T05:48:51.087Z,60.10
2022-11-09T05:51:19.439Z,63.40
2022-11-09T05:53:49.305Z,54.45
2022-11-09T05:56:17.853Z,60.78
2022-11-09T05:58:46.007Z,61.42
2022-11-09T06:01:15.826Z,60.60
2022-11-09T06:03:44.517Z,64.55
2022-11-09T06:06:15.002Z,61.67
2022-11-09T06:08:43.744Z,68.40
2022-11-09T06:11:23.143Z,67.47
2022-11-09T06:13:53.021Z,62.63
2022-11-09T06:16:21.672Z,58.95
2022-11-09T06:18:50.033Z,63.33
2022-11-09T06:21:18.325Z,61.72
2022-11-09T06:23:46.629Z,60.33
2022-11-09T06:26:16.262Z,53.17
2022-11-09T06:28:44.446Z,56.10
2022-11-09T06:31:15.562Z,51.25
2022-11-09T06:33:44.009Z,62.60
2022-11-09T06:36:12.943Z,52.53
2022-11-09T06:38:41.566Z,62.65
2022-11-09T06:41:11.221Z,66.50
2022-11-09T06:43:40.851Z,54.13
2022-11-09T06:46:11.012Z,60.63
2022-11-09T06:48:39.992Z,63.95
2022-11-09T06:51:08.760Z,58.75
2022-11-09T06:53:38.099Z,71.30
2022-11-09T06:56:07.202Z,61.25
2022-11-09T06:58:36.020Z,64.78
2022-11-09T07:01:10.383Z,67.93
2022-11-09T07:03:39.801Z,64.90
2022-11-09T07:06:09.554Z,65.18
2022-11-09T07:08:38.448Z,59.22
2022-11-09T07:11:07.981Z,67.88
2022-11-09T07:13:36.381Z,60.65
2022-11-09T07:16:04.875Z,64.10
2022-11-09T07:18:34.899Z,61.13
2022-11-09T07:21:08.889Z,64.43
2022-11-09T07:23:41.766Z,53.75
2022-11-09T07:26:10.430Z,58.28
2022-11-09T07:28:38.699Z,58.17
2022-11-09T07:31:07.253Z,63.72
2022-11-09T07:33:36.895Z,62.83
2022-11-09T07:36:08.199Z,37.83
2022-11-09T07:38:36.479Z,53.42
2022-11-09T07:41:05.020Z,57.38
2022-11-09T07:43:33.552Z,52.03
2022-11-09T07:46:05.073Z,64.15
2022-11-09T07:48:33.657Z,53.55
2022-11-09T07:51:03.926Z,52.58
2022-11-09T07:53:32.126Z,55.00
2022-11-09T07:56:01.694Z,47.95
2022-11-09T07:58:30.454Z,47.15
2022-11-09T08:00:59.303Z,48.80
2022-11-09T08:03:27.972Z,47.63
2022-11-09T08:05:57.846Z,43.67
2022-11-09T08:08:27.691Z,43.72
2022-11-09T08:10:57.974Z,45.38
2022-11-09T08:13:26.338Z,43.67
2022-11-09T08:15:54.555Z,43.42
2022-11-09T08:18:24.178Z,48.75
2022-11-09T08:20:52.538Z,50.13
2022-11-09T08:23:22.043Z,52.10
2022-11-09T08:25:52.506Z,55.92
2022-11-09T08:28:21.459Z,51.10
2022-11-09T08:30:57.646Z,46.58
2022-11-09T08:33:26.502Z,49.33
2022-11-09T08:35:55.203Z,49.75
2022-11-09T08:38:23.982Z,45.30
2022-11-09T08:40:58.111Z,54.25
2022-11-09T08:43:26.639Z,48.10
2022-11-09T08:45:54.921Z,48.67
2022-11-09T08:48:23.212Z,53.17
2022-11-09T08:50:54.020Z,51.03
2022-11-09T08:53:23.015Z,51.33
2022-11-09T08:55:51.290Z,48.03
2022-11-09T08:58:21.609Z,53.42
2022-11-09T09:00:50.290Z,47.38
2022-11-09T09:03:18.520Z,54.78
2022-11-09T09:05:49.560Z,45.28
2022-11-09T09:08:22.096Z,45.17
2022-11-09T09:10:50.616Z,50.20
2022-11-09T09:13:22.861Z,41.53
2022-11-09T09:15:51.312Z,39.00
2022-11-09T09:18:19.813Z,47.38
2022-11-09T09:20:48.244Z,42.17
2022-11-09T09:23:17.114Z,39.72
2022-11-09T09:25:45.251Z,39.78
2022-11-09T09:28:13.480Z,42.90
2022-11-09T09:30:43.047Z,45.78
2022-11-09T09:33:11.991Z,40.17
2022-11-09T09:35:40.253Z,38.28
2022-11-09T09:38:08.397Z,42.60
2022-11-09T09:40:43.763Z,37.38
2022-11-09T09:43:19.063Z,35.65
2022-11-09T09:45:54.418Z,34.90
2022-11-09T09:48:32.458Z,37.80
2022-11-09T09:51:04.174Z,38.90
2022-11-09T09:53:36.591Z,36.42
2022-11-09T09:56:10.657Z,41.85
2022-11-09T09:58:44.651Z,39.05
2022-11-09T10:01:20.022Z,34.92
2022-11-09T10:03:48.389Z,40.03
2022-11-09T10:06:33.410Z,31.60
2022-11-09T10:09:08.306Z,41.92
2022-11-09T10:11:45.664Z,40.00
2022-11-09T10:14:40.531Z,37.22
2022-11-09T10:17:17.589Z,34.35
2022-11-09T10:20:04.723Z,41.33
2022-11-09T10:22:42.891Z,36.47
2022-11-09T10:25:32.254Z,40.55
2022-11-09T10:28:13.387Z,40.90
2022-11-09T10:30:41.993Z,37.97
2022-11-09T10:33:21.454Z,39.72
2022-11-09T10:35:56.670Z,36.15
2022-11-09T10:38:30.117Z,41.75
2022-11-09T10:41:05.683Z,46.60
2022-11-09T10:43:33.807Z,39.03
2022-11-09T10:46:05.009Z,44.30
2022-11-09T10:48:37.280Z,41.85
2022-11-09T10:51:06.021Z,40.60
2022-11-09T10:53:35.186Z,41.75
2022-11-09T10:56:20.419Z,45.10
2022-11-09T10:58:51.423Z,42.00
2022-11-09T11:01:21.643Z,41.17
2022-11-09T11:03:53.431Z,42.92
2022-11-09T11:06:31.661Z,36.80
2022-11-09T11:09:16.978Z,41.80
2022-11-09T11:11:45.183Z,41.95
2022-11-09T11:14:21.684Z,40.78
2022-11-09T11:16:53.270Z,49.83
2022-11-09T11:19:34.645Z,43.50
2022-11-09T11:22:23.905Z,40.97
2022-11-09T11:24:57.374Z,43.75
2022-11-09T11:27:30.752Z,42.45
2022-11-09T11:30:06.460Z,42.40
2022-11-09T11:32:34.666Z,41.88
2022-11-09T11:35:06.104Z,47.03
2022-11-09T11:37:48.502Z,44.53
2022-11-09T11:40:22.559Z,38.55
2022-11-09T11:43:16.462Z,48.42
2022-11-09T11:45:50.934Z,36.88
2022-11-09T11:48:46.350Z,40.78
2022-11-09T11:51:20.980Z,43.30
2022-11-09T11:54:01.463Z,45.47
2022-11-09T11:56:35.019Z,39.08
2022-11-09T11:59:29.722Z,49.22
2022-11-09T12:02:20.403Z,38.55
2022-11-09T12:05:08.900Z,42.67
2022-11-09T12:07:47.914Z,35.13
2022-11-09T12:10:31.389Z,33.88
2022-11-09T12:13:10.859Z,41.85
2022-11-09T12:15:53.367Z,38.80
2022-11-09T12:18:35.598Z,41.88
2022-11-09T12:21:16.872Z,34.90
2022-11-09T12:24:03.544Z,40.40
2022-11-09T12:26:59.620Z,31.15
2022-11-09T12:29:43.247Z,34.80
2022-11-09T12:32:19.378Z,34.38
2022-11-09T12:34:58.168Z,40.63
2022-11-09T12:37:30.584Z,54.25
2022-11-09T12:40:14.892Z,36.35
2022-11-09T12:42:47.004Z,34.70
2022-11-09T12:45:24.167Z,44.50
2022-11-09T12:47:55.347Z,43.80
2022-11-09T12:50:26.586Z,52.20
2022-11-09T12:52:55.176Z,121.38
2022-11-09T12:55:33.677Z,39.88
2022-11-09T12:58:01.978Z,44.58
2022-11-09T13:00:51.272Z,35.17
2022-11-09T13:03:26.836Z,41.17
2022-11-09T13:06:19.570Z,37.13
2022-11-09T13:08:59.656Z,36.50
2022-11-09T13:11:37.379Z,33.78
2022-11-09T13:14:30.355Z,31.65
2022-11-09T13:17:00.591Z,31.02
2022-11-09T13:19:51.436Z,38.90
2022-11-09T13:22:57.119Z,32.85
2022-11-09T13:25:51.093Z,30.30
2022-11-09T13:28:52.062Z,33.78
2022-11-09T13:32:03.326Z,32.05
2022-11-09T13:34:43.390Z,31.50
2022-11-09T13:37:51.345Z,27.50
2022-11-09T13:40:42.710Z,30.95
2022-11-09T13:43:18.803Z,32.90
2022-11-09T13:45:48.865Z,36.92
2022-11-09T13:48:34.580Z,28.80
2022-11-09T13:51:05.292Z,29.42
2022-11-09T13:53:53.037Z,34.20
2022-11-09T13:56:29.674Z,30.73
2022-11-09T13:59:03.727Z,31.27
2022-11-09T14:01:38.395Z,28.05
2022-11-09T14:04:25.093Z,28.83
2022-11-09T14:07:02.522Z,25.48
2022-11-09T14:09:39.890Z,23.02
2022-11-09T14:12:33.226Z,23.27
2022-11-09T14:15:21.459Z,30.02
2022-11-09T14:18:14.071Z,29.52
2022-11-09T14:20:51.908Z,24.52
2022-11-09T14:23:24.246Z,25.88
2022-11-09T14:25:52.498Z,25.73
2022-11-09T14:28:23.994Z,28.77
2022-11-09T14:30:52.327Z,25.52
2022-11-09T14:33:24.937Z,27.95
2022-11-09T14:36:00.226Z,30.95
2022-11-09T14:38:32.347Z,28.95
2022-11-09T14:41:01.345Z,30.92
2022-11-09T14:43:36.785Z,27.08
2022-11-09T14:46:06.754Z,27.38
2022-11-09T14:48:36.339Z,27.30
2022-11-09T14:51:08.006Z,36.20
2022-11-09T14:53:39.101Z,28.83
2022-11-09T14:56:11.083Z,33.97
2022-11-09T14:58:42.723Z,80.13
2022-11-09T15:01:21.678Z,34.38
2022-11-09T15:04:09.296Z,48.65
2022-11-09T15:06:47.260Z,42.70
2022-11-09T15:09:22.238Z,35.63
2022-11-09T15:11:51.013Z,33.47
2022-11-09T15:14:26.731Z,32.10
2022-11-09T15:17:01.694Z,43.28
2022-11-09T15:19:32.430Z,33.95
2022-11-09T15:22:03.341Z,41.65
2022-11-09T15:24:46.375Z,42.83
2022-11-09T15:27:32.224Z,32.38
2022-11-09T15:30:00.536Z,36.90
2022-11-09T15:32:34.076Z,36.92
2022-11-09T15:35:02.423Z,36.80
2022-11-09T15:37:47.888Z,36.03
2022-11-09T15:40:18.393Z,38.13
2022-11-09T15:42:47.241Z,41.58
2022-11-09T15:45:19.587Z,36.83
2022-11-09T15:47:52.849Z,45.65
2022-11-09T15:50:23.935Z,42.72
2022-11-09T15:52:54.120Z,46.25
2022-11-09T15:55:24.445Z,45.78
2022-11-09T15:57:53.712Z,41.17
2022-11-09T16:00:23.267Z,41.70
2022-11-09T16:02:57.577Z,45.38
2022-11-09T16:05:27.837Z,45.83
2022-11-09T16:07:58.055Z,59.20
2022-11-09T16:10:27.582Z,58.88
2022-11-09T16:12:56.987Z,64.28
2022-11-09T16:15:26.018Z,64.78
2022-11-09T16:17:54.454Z,62.42
2022-11-09T16:20:22.984Z,59.85
2022-11-09T16:22:51.238Z,57.90
2022-11-09T16:25:21.215Z,64.75
2022-11-09T16:27:51.293Z,64.60
2022-11-09T16:30:20.754Z,61.92
2022-11-09T16:32:48.983Z,67.13
2022-11-09T16:35:27.065Z,68.65
2022-11-09T16:37:56.058Z,68.40
2022-11-09T16:40:27.665Z,91.22
2022-11-09T16:42:56.392Z,60.33
2022-11-09T16:45:29.149Z,67.38
2022-11-09T16:48:03.462Z,64.90
2022-11-09T16:50:32.002Z,71.75
2022-11-09T16:53:00.201Z,72.72
2022-11-09T16:55:29.849Z,76.63
2022-11-09T16:57:58.208Z,76.68
2022-11-09T17:00:42.394Z,78.78
2022-11-09T17:03:15.354Z,77.70
2022-11-09T17:05:47.235Z,75.82
2022-11-09T17:08:15.472Z,70.82
2022-11-09T17:10:47.812Z,79.18
2022-11-09T17:13:16.243Z,86.22
2022-11-09T17:15:46.192Z,80.95
2022-11-09T17:18:18.814Z,68.93
2022-11-09T17:20:49.435Z,88.43
2022-11-09T17:23:19.681Z,77.57
2022-11-09T17:25:57.566Z,81.93
2022-11-09T17:28:25.819Z,89.30
2022-11-09T17:30:54.499Z,98.47
2022-11-09T17:33:25.954Z,91.38
2022-11-09T17:36:00.981Z,84.78
2022-11-09T17:38:30.170Z,89.18
2022-11-09T17:41:05.365Z,75.72
2022-11-09T17:43:37.011Z,80.05
2022-11-09T17:46:06.157Z,76.32
2022-11-09T17:48:34.929Z,72.50
2022-11-09T17:51:03.644Z,81.72
2022-11-09T17:53:32.403Z,75.97
2022-11-09T17:56:01.758Z,74.78
2022-11-09T17:58:39.765Z,90.32
2022-11-09T18:01:09.084Z,73.60
2022-11-09T18:03:39.159Z,80.65
2022-11-09T18:06:12.783Z,82.70
2022-11-09T18:08:41.404Z,84.60
2022-11-09T18:11:12.223Z,75.82
2022-11-09T18:13:43.615Z,84.05
2022-11-09T18:16:17.474Z,74.65
2022-11-09T18:18:46.597Z,69.93
2022-11-09T18:21:20.379Z,75.10
2022-11-09T18:23:54.413Z,71.45
2022-11-09T18:26:25.669Z,73.15
2022-11-09T18:28:57.670Z,77.95
2022-11-09T18:31:25.839Z,84.25
2022-11-09T18:33:54.398Z,91.85
2022-11-09T18:36:23.600Z,76.13
2022-11-09T18:38:52.259Z,72.35
2022-11-09T18:41:22.981Z,84.65
2022-11-09T18:44:01.045Z,72.97
2022-11-09T18:46:45.435Z,85.05
2022-11-09T18:49:20.852Z,83.70
2022-11-09T18:51:49.242Z,76.38
2022-11-09T18:54:20.842Z,85.80
2022-11-09T18:56:49.155Z,75.78
2022-11-09T18:59:18.930Z,82.05
2022-11-09T19:01:59.759Z,76.88
2022-11-09T19:04:43.342Z,100.18
2022-11-09T19:07:27.267Z,87.38
2022-11-09T19:10:01.665Z,79.60
2022-11-09T19:12:48.092Z,76.10
2022-11-09T19:15:26.894Z,116.90
2022-11-09T19:18:10.746Z,80.75
2022-11-09T19:20:48.385Z,79.55
2022-11-09T19:23:17.599Z,84.07
2022-11-09T19:25:45.893Z,83.18
2022-11-09T19:28:14.155Z,85.05
2022-11-09T19:30:47.612Z,71.88
2022-11-09T19:33:23.122Z,74.68
2022-11-09T19:36:23.214Z,85.93
2022-11-09T19:38:49.773Z,78.22
2022-11-09T19:41:18.105Z,77.82
2022-11-09T19:43:57.146Z,73.15
2022-11-09T19:46:31.679Z,83.78
2022-11-09T19:49:00.046Z,91.15
2022-11-09T19:51:29.414Z,96.53
2022-11-09T19:54:11.022Z,90.53
2022-11-09T19:56:39.299Z,94.75
2022-11-09T19:59:14.340Z,87.60
2022-11-09T20:01:44.041Z,79.70
2022-11-09T20:04:18.574Z,76.97
2022-11-09T20:06:49.628Z,78.00
2022-11-09T20:09:20.725Z,76.97
2022-11-09T20:12:10.139Z,81.30
2022-11-09T20:14:38.331Z,83.75
2022-11-09T20:17:07.974Z,73.03
2022-11-09T20:19:36.249Z,75.80
2022-11-09T20:22:07.609Z,77.03
2022-11-09T20:24:36.540Z,72.38
2022-11-09T20:27:05.056Z,80.97
2022-11-09T20:29:34.809Z,69.85
2022-11-09T20:32:03.184Z,75.43
2022-11-09T20:34:32.882Z,70.80
2022-11-09T20:37:01.172Z,74.30
2022-11-09T20:39:32.232Z,70.32
2022-11-09T20:42:00.689Z,71.75
2022-11-09T20:44:28.914Z,81.15
2022-11-09T20:46:57.203Z,76.25
2022-11-09T20:49:25.425Z,72.50
2022-11-09T20:51:55.509Z,66.60
2022-11-09T20:54:23.782Z,69.03
2022-11-09T20:56:54.839Z,68.72
2022-11-09T20:59:23.090Z,73.72
2022-11-09T21:01:51.369Z,71.68
2022-11-09T21:04:19.574Z,66.28
2022-11-09T21:06:48.126Z,68.00
2022-11-09T21:09:17.973Z,64.22
2022-11-09T21:12:03.651Z,66.05
2022-11-09T21:14:32.206Z,63.58
2022-11-09T21:17:03.028Z,71.43
2022-11-09T21:19:31.360Z,67.88
2022-11-09T21:21:59.693Z,69.28
2022-11-09T21:24:47.250Z,69.70
2022-11-09T21:27:38.742Z,73.57
2022-11-09T21:30:08.081Z,68.10
2022-11-09T21:32:36.319Z,75.35
2022-11-09T21:35:04.825Z,78.07
2022-11-09T21:37:33.100Z,79.90
2022-11-09T21:40:02.764Z,83.20
2022-11-09T21:42:31.121Z,76.82
2022-11-09T21:44:59.412Z,71.38
2022-11-09T21:47:27.682Z,78.05
2022-11-09T21:49:56.027Z,88.40
2022-11-09T21:52:24.255Z,82.00
2022-11-09T21:54:52.590Z,80.15
2022-11-09T21:57:22.208Z,83.35
2022-11-09T21:59:50.586Z,83.97
2022-11-09T22:02:18.933Z,77.00
2022-11-09T22:04:47.147Z,83.20
2022-11-09T22:07:15.576Z,81.32
2022-11-09T22:10:08.685Z,74.95
2022-11-09T22:12:50.519Z,83.72
2022-11-09T22:15:36.311Z,81.18
2022-11-09T22:18:05.984Z,78.25
2022-11-09T22:20:51.472Z,84.10
2022-11-09T22:23:22.845Z,90.45
2022-11-09T22:25:51.510Z,86.15
2022-11-09T22:28:21.220Z,86.93
2022-11-09T22:30:52.590Z,89.88
2022-11-09T22:33:26.903Z,90.00
2022-11-09T22:35:56.263Z,84.93
2022-11-09T22:38:24.559Z,90.78
2022-11-09T22:40:52.904Z,90.82
2022-11-09T22:43:23.053Z,96.85
2022-11-09T22:45:51.550Z,95.38
2022-11-09T22:48:19.888Z,84.30
2022-11-09T22:50:48.167Z,80.93
2022-11-09T22:53:16.494Z,82.75
2022-11-09T22:55:44.698Z,77.30
2022-11-09T22:58:13.102Z,78.68
2022-11-09T23:00:43.012Z,74.72
2022-11-09T23:03:11.350Z,75.55
2022-11-09T23:05:39.678Z,79.53
2022-11-09T23:08:08.201Z,76.35
2022-11-09T23:10:36.628Z,79.00
2022-11-09T23:13:05.592Z,75.28
2022-11-09T23:15:34.114Z,77.97
2022-11-09T23:18:21.275Z,73.38
2022-11-09T23:20:49.639Z,68.28
2022-11-09T23:23:17.978Z,67.97
2022-11-09T23:25:55.033Z,64.65
2022-11-09T23:28:23.471Z,64.93
2022-11-09T23:30:52.127Z,62.80
2022-11-09T23:33:22.091Z,66.28
2022-11-09T23:35:50.547Z,68.68
2022-11-09T23:38:18.750Z,61.40
2022-11-09T23:40:47.722Z,63.80
2022-11-09T23:43:17.101Z,62.50
2022-11-09T23:45:45.512Z,59.95
2022-11-09T23:48:18.492Z,52.65
2022-11-09T23:50:49.252Z,56.22
2022-11-09T23:53:17.806Z,53.83
2022-11-09T23:55:46.463Z,59.58
2022-11-09T23:58:14.725Z,56.05
